Time;durP1;ratioP1;P1;durP2;ratioP2;P2;SDS_P1;SDS_P2;PMS_P1;PMS_P2;Temp;Humidity;BMP_temperature;BMP_pressure;BME280_temperature;BME280_humidity;BME280_pressure;Samples;Min_cycle;Max_cycle;Signal;HPM_P1;HPM_P2
2023/06/12 00:01:48;;;;;;;5.80;4.80;;;;;;;12.99;77.72;96952.82;108508;1277;22520;-88
2023/06/12 00:04:21;;;;;;;5.60;5.00;;;;;;;12.95;77.87;96953.44;108509;1279;58682;-87
2023/06/12 00:06:53;;;;;;;6.80;4.50;;;;;;;12.90;77.74;96953.87;108524;1279;26476;-88
2023/06/12 00:09:25;;;;;;;8.60;4.40;;;;;;;12.84;78.08;96952.99;108529;1279;22511;-88
2023/06/12 00:11:57;;;;;;;6.30;4.50;;;;;;;12.79;77.82;96953.80;108518;1279;22589;-87
2023/06/12 00:14:28;;;;;;;9.50;4.70;;;;;;;12.71;78.28;96956.02;108514;1279;42096;-87
2023/06/12 00:17:01;;;;;;;9.40;4.60;;;;;;;12.77;78.76;96957.41;108548;1274;22525;-88
2023/06/12 00:19:33;;;;;;;5.90;4.50;;;;;;;12.81;78.65;96955.58;108590;1274;22565;-87
2023/06/12 00:22:05;;;;;;;5.00;4.40;;;;;;;12.80;78.53;96957.17;108522;1279;25266;-88
2023/06/12 00:24:36;;;;;;;6.70;4.30;;;;;;;12.75;78.36;96956.44;108486;1271;36786;-88
2023/06/12 00:27:08;;;;;;;5.50;4.20;;;;;;;12.73;78.45;96955.48;108527;1279;22665;-87
2023/06/12 00:29:39;;;;;;;6.80;4.90;;;;;;;12.76;78.78;96953.39;108555;1279;22806;-88
2023/06/12 00:32:12;;;;;;;7.10;5.10;;;;;;;12.80;78.97;96952.17;108587;1279;22837;-88
2023/06/12 00:34:47;;;;;;;7.60;4.80;;;;;;;12.81;79.00;96949.63;108531;1277;38708;-88
2023/06/12 00:37:18;;;;;;;7.00;4.60;;;;;;;12.79;78.71;96951.65;108563;1274;22528;-87
2023/06/12 00:39:52;;;;;;;8.80;4.70;;;;;;;12.66;78.23;96951.69;108598;1269;22671;-88
2023/06/12 00:42:24;;;;;;;4.60;4.20;;;;;;;12.60;78.35;96952.39;108556;1271;22689;-88
2023/06/12 00:44:56;;;;;;;7.00;4.40;;;;;;;12.53;78.06;96951.92;108485;1276;63308;-88
2023/06/12 00:47:28;;;;;;;5.20;4.40;;;;;;;12.37;77.86;96951.36;108545;1274;22520;-87
2023/06/12 00:50:04;;;;;;;6.40;4.70;;;;;;;12.22;77.81;96952.88;108570;1278;22585;-88
2023/06/12 00:52:35;;;;;;;6.40;4.50;;;;;;;12.15;78.31;96949.70;108560;1279;25402;-87
2023/06/12 00:55:09;;;;;;;6.20;4.50;;;;;;;12.18;78.49;96948.60;108509;1264;33915;-87
2023/06/12 00:57:41;;;;;;;6.20;5.00;;;;;;;12.17;78.28;96944.63;108565;1276;22531;-87
2023/06/12 01:00:17;;;;;;;7.50;4.60;;;;;;;12.17;78.82;96943.95;108540;1279;26459;-87
2023/06/12 01:02:51;;;;;;;6.50;4.50;;;;;;;12.21;79.04;96946.98;108547;1279;22563;-87
2023/06/12 01:05:32;;;;;;;5.00;4.40;;;;;;;12.21;78.75;96948.15;106556;1279;2697861;-88
2023/06/12 01:08:15;;;;;;;7.40;4.40;;;;;;;12.15;78.61;96947.94;108542;1268;22680;-88
2023/06/12 01:10:56;;;;;;;4.90;4.30;;;;;;;12.13;78.74;96949.35;108536;1279;22542;-87
2023/06/12 01:13:31;;;;;;;6.10;4.40;;;;;;;12.10;78.84;96949.21;108541;1279;22531;-87
2023/06/12 01:16:06;;;;;;;6.20;4.70;;;;;;;12.11;78.96;96948.30;108478;1279;62105;-88
2023/06/12 01:18:37;;;;;;;7.10;4.90;;;;;;;12.13;79.28;96951.27;108542;1279;25352;-87
2023/06/12 01:21:17;;;;;;;8.10;4.70;;;;;;;12.18;79.52;96953.81;108502;1276;22603;-87
2023/06/12 01:24:13;;;;;;;5.90;4.20;;;;;;;12.18;79.40;96952.96;108553;1279;25360;-88
2023/06/12 01:27:05;;;;;;;6.20;4.70;;;;;;;12.16;79.27;96946.98;108517;1274;22530;-87
2023/06/12 01:30:10;;;;;;;6.70;4.50;;;;;;;12.13;79.23;96948.11;108544;1274;22547;-88
2023/06/12 01:32:44;;;;;;;6.40;4.70;;;;;;;12.10;79.35;96948.98;108532;1276;22551;-87
2023/06/12 01:35:22;;;;;;;5.70;4.50;;;;;;;12.11;79.41;96949.27;108511;1279;60443;-87
2023/06/12 01:38:04;;;;;;;7.40;4.90;;;;;;;12.10;79.43;96951.13;108547;1279;22525;-87
2023/06/12 01:40:38;;;;;;;5.60;4.90;;;;;;;12.07;79.64;96956.56;108557;1277;26491;-87
2023/06/12 01:43:10;;;;;;;5.80;4.40;;;;;;;12.09;79.99;96956.11;108547;1272;25312;-87
2023/06/12 01:45:46;;;;;;;5.60;4.40;;;;;;;12.10;80.12;96955.95;108505;1279;78378;-87
2023/06/12 01:48:20;;;;;;;7.30;4.70;;;;;;;12.11;80.12;96956.43;108562;1271;22539;-88
2023/06/12 01:50:54;;;;;;;4.50;3.80;;;;;;;12.09;80.15;96957.45;108566;1276;24286;-87
2023/06/12 01:53:26;;;;;;;7.50;4.90;;;;;;;12.07;79.99;96956.93;108584;1279;22537;-86
2023/06/12 01:55:57;;;;;;;6.10;4.50;;;;;;;12.02;80.14;96953.85;108520;1272;45502;-86
2023/06/12 01:58:29;;;;;;;6.50;4.70;;;;;;;12.01;80.43;96959.66;108572;1272;25276;-87
2023/06/12 02:01:00;;;;;;;4.60;4.20;;;;;;;12.01;80.48;96960.93;108631;1279;24444;-87
2023/06/12 02:03:32;;;;;;;6.90;4.50;;;;;;;12.00;80.55;96961.05;108501;1274;22524;-87
2023/06/12 02:06:03;;;;;;;8.30;4.90;;;;;;;11.97;80.29;96960.43;106585;1279;2653459;-87
2023/06/12 02:08:35;;;;;;;7.20;4.40;;;;;;;11.89;80.26;96957.45;108546;1273;22520;-88
2023/06/12 02:11:06;;;;;;;5.30;4.40;;;;;;;11.81;80.43;96958.73;108549;1271;22527;-88
2023/06/12 02:13:38;;;;;;;6.50;4.10;;;;;;;11.75;80.82;96962.31;108446;1267;22521;-87
2023/06/12 02:16:13;;;;;;;5.00;4.20;;;;;;;11.76;81.53;96959.17;108536;1275;66167;-87
2023/06/12 02:18:46;;;;;;;5.40;4.30;;;;;;;11.80;81.60;96962.56;108510;1270;22531;-88
2023/06/12 02:21:18;;;;;;;6.80;4.50;;;;;;;11.80;81.38;96958.68;108547;1279;22520;-87
2023/06/12 02:23:49;;;;;;;6.30;4.50;;;;;;;11.78;81.15;96958.61;108431;1279;173095;-87
2023/06/12 02:26:24;;;;;;;5.30;4.60;;;;;;;11.77;81.04;96957.36;108503;1272;38826;-88
2023/06/12 02:29:10;;;;;;;6.90;4.20;;;;;;;11.70;80.97;96958.42;108575;1275;22524;-86
2023/06/12 02:31:42;;;;;;;11.30;4.80;;;;;;;11.65;81.30;96959.92;108540;1279;22538;-87
2023/06/12 02:34:13;;;;;;;5.40;4.20;;;;;;;11.55;81.29;96960.05;108534;1279;41073;-87
2023/06/12 02:36:46;;;;;;;6.00;4.50;;;;;;;11.53;81.81;96965.05;108550;1271;22558;-88
2023/06/12 02:39:18;;;;;;;4.90;4.00;;;;;;;11.55;82.11;96967.50;108547;1279;22565;-87
2023/06/12 02:41:50;;;;;;;5.10;4.30;;;;;;;11.56;82.03;96968.29;108404;1266;22643;-87
2023/06/12 02:44:24;;;;;;;4.50;4.00;;;;;;;11.55;82.05;96971.85;108519;1274;34446;-87
2023/06/12 02:46:59;;;;;;;4.80;4.30;;;;;;;11.52;81.86;96965.84;108572;1271;22520;-87
2023/06/12 02:49:32;;;;;;;5.80;4.40;;;;;;;11.49;81.85;96969.48;108567;1276;22543;-87
2023/06/12 02:52:07;;;;;;;6.20;4.70;;;;;;;11.48;82.27;96975.61;108588;1279;22668;-87
2023/06/12 02:54:39;;;;;;;6.30;4.50;;;;;;;11.49;82.57;96976.39;108555;1279;50733;-87
2023/06/12 02:57:10;;;;;;;5.90;4.50;;;;;;;11.51;82.50;96980.89;108532;1279;22540;-87
2023/06/12 02:59:42;;;;;;;5.90;4.70;;;;;;;11.54;82.38;96982.27;108576;1279;22565;-87
2023/06/12 03:02:16;;;;;;;5.10;4.40;;;;;;;11.55;82.19;96983.21;108576;1279;22517;-87
2023/06/12 03:04:48;;;;;;;6.60;4.70;;;;;;;11.54;82.12;96979.23;108531;1276;35905;-87
2023/06/12 03:07:24;;;;;;;5.40;4.50;;;;;;;11.54;82.29;96978.44;108520;1279;22550;-87
2023/06/12 03:09:59;;;;;;;8.50;4.50;;;;;;;11.54;82.36;96974.23;108570;1279;25372;-87
2023/06/12 03:12:31;;;;;;;7.10;4.50;;;;;;;11.52;82.30;96977.80;108446;1264;24340;-87
2023/06/12 03:15:02;;;;;;;7.70;4.40;;;;;;;11.53;82.56;96974.56;108549;1273;41419;-88
2023/06/12 03:17:34;;;;;;;6.10;4.30;;;;;;;11.58;82.77;96980.90;108522;1279;22520;-87
2023/06/12 03:20:11;;;;;;;5.70;4.20;;;;;;;11.60;82.71;96979.46;108543;1279;22529;-86
2023/06/12 03:22:42;;;;;;;6.70;4.50;;;;;;;11.62;83.00;96981.69;108536;1279;23861;-87
2023/06/12 03:25:18;;;;;;;5.10;4.00;;;;;;;11.65;83.10;96984.36;108549;1274;58269;-87
2023/06/12 03:27:50;;;;;;;5.30;4.40;;;;;;;11.66;83.18;96983.40;108570;1274;24537;-87
2023/06/12 03:30:24;;;;;;;6.40;4.60;;;;;;;11.69;83.20;96990.71;108542;1277;22533;-87
2023/06/12 03:32:56;;;;;;;5.80;3.90;;;;;;;11.71;83.08;96993.01;108618;1273;22538;-87
2023/06/12 03:35:29;;;;;;;7.40;4.00;;;;;;;11.73;82.99;96992.51;108514;1276;43444;-87
2023/06/12 03:38:01;;;;;;;5.70;4.00;;;;;;;11.75;83.11;96999.08;108550;1279;22540;-87
2023/06/12 03:40:32;;;;;;;5.20;3.80;;;;;;;11.77;83.17;96993.42;108548;1279;22535;-87
2023/06/12 03:43:03;;;;;;;5.70;3.80;;;;;;;11.81;83.08;96995.07;108581;1279;22533;-87
2023/06/12 03:45:35;;;;;;;6.80;4.10;;;;;;;11.87;83.12;96992.27;108555;1273;60690;-87
2023/06/12 03:48:07;;;;;;;4.20;3.70;;;;;;;11.92;83.12;96989.41;108578;1278;22703;-87
2023/06/12 03:50:39;;;;;;;4.10;3.40;;;;;;;11.95;83.06;96986.69;108566;1277;22582;-87
2023/06/12 03:53:13;;;;;;;5.20;3.70;;;;;;;11.99;82.97;96992.26;108534;1274;22527;-87
2023/06/12 03:55:45;;;;;;;5.80;4.30;;;;;;;12.00;82.95;96993.19;108512;1279;53069;-87
2023/06/12 03:58:17;;;;;;;5.50;3.70;;;;;;;12.04;82.90;96991.61;108536;1279;22561;-88
2023/06/12 04:00:49;;;;;;;4.80;3.90;;;;;;;12.07;82.72;96986.86;108603;1277;22523;-87
2023/06/12 04:03:24;;;;;;;8.30;3.80;;;;;;;12.09;82.72;96992.80;108579;1274;26452;-87
2023/06/12 04:05:55;;;;;;;5.40;3.60;;;;;;;12.13;82.65;96988.05;108509;1274;63473;-87
2023/06/12 04:08:27;;;;;;;4.10;3.20;;;;;;;12.16;82.52;96987.11;108400;1274;26433;-88
2023/06/12 04:11:02;;;;;;;5.90;3.80;;;;;;;12.23;82.56;96987.33;108380;1279;22720;-88
2023/06/12 04:13:35;;;;;;;4.50;3.40;;;;;;;12.30;82.53;96990.23;108595;1276;25377;-88
2023/06/12 04:16:07;;;;;;;5.80;3.30;;;;;;;12.37;82.48;96998.88;108391;1279;44994;-87
2023/06/12 04:18:38;;;;;;;8.00;3.40;;;;;;;12.42;82.32;96994.70;108437;1279;22549;-88
2023/06/12 04:21:11;;;;;;;4.80;3.70;;;;;;;12.49;82.25;96987.55;108429;1274;22611;-87
2023/06/12 04:23:47;;;;;;;5.10;3.60;;;;;;;12.57;82.22;96993.71;108420;1277;22539;-87
2023/06/12 04:26:24;;;;;;;5.30;3.20;;;;;;;12.62;81.92;96989.09;108339;1280;117061;-87
2023/06/12 04:28:56;;;;;;;6.10;3.90;;;;;;;12.67;81.93;96991.05;108441;1273;22556;-87
2023/06/12 04:31:30;;;;;;;7.00;3.50;;;;;;;12.74;81.81;96999.55;108447;1279;22543;-87
2023/06/12 04:34:02;;;;;;;4.50;3.70;;;;;;;12.80;82.00;97001.34;108419;1273;47592;-86
2023/06/12 04:36:37;;;;;;;4.40;3.60;;;;;;;12.89;82.24;97002.69;108386;1280;25200;-88
2023/06/12 04:39:11;;;;;;;8.90;3.90;;;;;;;12.96;82.13;97002.83;108445;1280;22563;-86
2023/06/12 04:41:43;;;;;;;7.00;4.40;;;;;;;13.05;82.21;97001.06;108398;1280;22527;-87
2023/06/12 04:44:15;;;;;;;5.40;3.70;;;;;;;13.13;82.20;96997.41;108404;1273;54037;-87
2023/06/12 04:46:48;;;;;;;5.90;3.60;;;;;;;13.23;82.00;96994.13;108386;1277;22526;-87
2023/06/12 04:49:25;;;;;;;5.60;3.70;;;;;;;13.29;81.85;96995.76;108442;1280;22580;-87
2023/06/12 04:51:58;;;;;;;5.30;3.20;;;;;;;13.33;81.76;96993.34;108446;1280;25334;-87
2023/06/12 04:54:35;;;;;;;3.70;3.30;;;;;;;13.38;81.37;96993.14;108369;1274;32807;-87
2023/06/12 04:57:12;;;;;;;5.40;3.20;;;;;;;13.45;81.43;96996.23;108427;1280;22534;-87
2023/06/12 04:59:44;;;;;;;5.10;3.60;;;;;;;13.56;81.28;96999.19;108418;1280;24209;-87
2023/06/12 05:02:16;;;;;;;4.10;3.00;;;;;;;13.67;81.03;97004.89;108385;1277;22520;-86
2023/06/12 05:04:48;;;;;;;3.70;2.90;;;;;;;13.78;80.67;97004.69;108428;1273;36138;-86
2023/06/12 05:07:21;;;;;;;5.30;3.20;;;;;;;13.90;80.50;97003.06;108593;1271;22537;-86
2023/06/12 05:09:55;;;;;;;4.90;3.50;;;;;;;13.99;79.64;96999.27;108582;1275;22551;-87
2023/06/12 05:12:27;;;;;;;3.90;3.00;;;;;;;14.08;79.34;97000.81;108564;1273;22544;-86
2023/06/12 05:15:00;;;;;;;4.50;2.80;;;;;;;14.29;79.38;97002.50;108536;1274;63754;-87
2023/06/12 05:17:33;;;;;;;4.50;3.10;;;;;;;14.47;78.38;97004.38;108550;1279;22527;-86
2023/06/12 05:20:08;;;;;;;4.70;2.80;;;;;;;14.78;78.86;97003.77;108550;1279;22547;-87
2023/06/12 05:22:45;;;;;;;3.70;2.40;;;;;;;16.09;80.51;97003.25;108544;1279;22580;-87
2023/06/12 05:25:17;;;;;;;5.60;2.60;;;;;;;17.64;77.16;96997.84;108529;1273;71479;-86
2023/06/12 05:27:48;;;;;;;3.00;2.50;;;;;;;18.79;74.20;96996.30;108542;1279;22527;-87
2023/06/12 05:30:20;;;;;;;4.70;2.80;;;;;;;18.78;69.06;97001.00;108508;1279;22589;-87
2023/06/12 05:32:52;;;;;;;4.30;2.40;;;;;;;19.35;70.09;97002.64;108566;1279;22536;-87
2023/06/12 05:35:25;;;;;;;3.00;2.40;;;;;;;20.77;68.71;96997.88;108504;1279;68847;-86
2023/06/12 05:37:58;;;;;;;3.60;2.40;;;;;;;21.94;66.53;96997.00;108574;1279;22777;-86
2023/06/12 05:40:33;;;;;;;5.20;2.70;;;;;;;22.62;63.33;97000.99;108565;1279;22524;-87
2023/06/12 05:43:05;;;;;;;3.60;2.30;;;;;;;23.31;61.58;97001.89;108575;1277;23393;-86
2023/06/12 05:45:36;;;;;;;5.00;2.50;;;;;;;24.14;60.09;96993.48;108517;1279;43689;-86
2023/06/12 05:48:08;;;;;;;3.70;2.40;;;;;;;24.52;57.65;96996.48;108611;1277;25284;-85
2023/06/12 05:50:40;;;;;;;3.40;2.00;;;;;;;25.50;56.54;96994.95;108590;1276;22551;-86
2023/06/12 05:53:11;;;;;;;2.60;1.50;;;;;;;26.26;54.62;96994.96;108626;1276;22526;-85
2023/06/12 05:55:43;;;;;;;3.40;2.30;;;;;;;26.95;52.84;96995.45;108531;1279;114356;-85
2023/06/12 05:58:14;;;;;;;2.60;1.90;;;;;;;27.47;50.80;96995.80;108600;1279;22549;-85
2023/06/12 06:00:47;;;;;;;3.60;1.90;;;;;;;27.72;49.12;96994.83;108425;1279;22696;-84
2023/06/12 06:03:19;;;;;;;3.70;2.10;;;;;;;27.79;47.32;96997.20;108582;1279;22545;-88
2023/06/12 06:05:51;;;;;;;3.30;1.90;;;;;;;27.55;45.77;96996.57;108579;1275;29223;-86
2023/06/12 06:08:22;;;;;;;2.90;1.80;;;;;;;27.43;45.02;97002.94;108607;1279;22587;-86
2023/06/12 06:10:54;;;;;;;3.10;1.60;;;;;;;27.40;43.87;97005.25;108586;1279;22542;-86
2023/06/12 06:13:31;;;;;;;2.30;1.90;;;;;;;27.16;42.35;97005.77;108582;1279;22522;-87
2023/06/12 06:16:05;;;;;;;2.10;1.60;;;;;;;26.70;41.71;97002.61;108511;1279;67198;-87
2023/06/12 06:18:38;;;;;;;4.50;1.70;;;;;;;26.45;40.88;97006.84;108558;1279;22542;-86
2023/06/12 06:21:11;;;;;;;3.10;1.90;;;;;;;26.42;40.40;97013.50;108564;1279;22542;-88
2023/06/12 06:23:47;;;;;;;3.80;1.50;;;;;;;25.26;38.70;97014.68;108612;1279;22573;-86
2023/06/12 06:26:18;;;;;;;3.50;1.70;;;;;;;24.10;38.36;97019.02;108514;1280;43563;-87
2023/06/12 06:28:49;;;;;;;4.10;1.80;;;;;;;22.72;37.88;97023.24;108559;1279;22556;-87
2023/06/12 06:31:22;;;;;;;3.80;2.10;;;;;;;22.16;39.21;97021.65;108531;1279;23279;-86
2023/06/12 06:33:53;;;;;;;3.70;1.80;;;;;;;21.59;39.28;97018.11;108599;1279;22520;-87
2023/06/12 06:36:25;;;;;;;5.80;1.80;;;;;;;21.37;39.94;97021.29;108522;1279;38182;-87
2023/06/12 06:38:57;;;;;;;4.50;1.80;;;;;;;21.13;39.63;97017.18;108589;1276;22534;-87
2023/06/12 06:41:28;;;;;;;2.30;1.80;;;;;;;20.78;40.21;97020.60;108564;1261;25431;-88
2023/06/12 06:44:02;;;;;;;3.80;1.90;;;;;;;20.72;41.25;97019.01;108568;1279;22637;-88
2023/06/12 06:46:37;;;;;;;3.90;1.90;;;;;;;20.98;41.93;97016.15;108577;1272;24275;-87
2023/06/12 06:49:09;;;;;;;3.20;1.70;;;;;;;21.08;41.58;97018.34;108557;1273;22558;-87
2023/06/12 06:51:43;;;;;;;6.90;2.10;;;;;;;21.46;42.20;97021.96;108595;1275;22516;-87
2023/06/12 06:54:14;;;;;;;3.70;2.00;;;;;;;21.28;40.86;97025.54;108539;1278;59061;-88
2023/06/12 06:56:47;;;;;;;2.50;1.90;;;;;;;20.81;40.98;97023.85;108585;1279;22520;-88
2023/06/12 06:59:18;;;;;;;5.60;1.70;;;;;;;20.00;41.10;97023.34;108569;1276;22551;-87
2023/06/12 07:01:54;;;;;;;3.50;1.90;;;;;;;19.40;42.22;97032.73;108588;1279;22540;-87
2023/06/12 07:04:26;;;;;;;4.10;2.20;;;;;;;19.13;43.40;97034.35;108508;1280;55643;-87
2023/06/12 07:07:00;;;;;;;3.40;1.80;;;;;;;18.96;44.31;97033.44;108528;1276;22523;-88
2023/06/12 07:09:36;;;;;;;9.50;2.80;;;;;;;19.42;45.20;97032.58;108558;1276;22553;-87
2023/06/12 07:12:08;;;;;;;3.60;1.80;;;;;;;20.03;45.61;97028.68;108583;1272;22548;-87
2023/06/12 07:14:40;;;;;;;4.20;2.00;;;;;;;20.01;44.21;97033.77;108517;1279;92281;-87
2023/06/12 07:17:15;;;;;;;3.90;2.40;;;;;;;19.47;44.29;97035.08;108577;1279;22612;-88
2023/06/12 07:19:52;;;;;;;3.40;2.00;;;;;;;18.83;44.64;97037.27;108544;1279;26508;-90
2023/06/12 07:22:24;;;;;;;2.50;2.00;;;;;;;18.24;44.74;97036.86;108601;1279;22552;-88
2023/06/12 07:24:58;;;;;;;2.50;2.10;;;;;;;18.01;46.48;97029.27;108497;1279;61793;-89
2023/06/12 07:27:35;;;;;;;2.80;2.10;;;;;;;18.28;46.94;97028.63;108571;1279;22654;-89
2023/06/12 07:30:09;;;;;;;2.60;1.90;;;;;;;18.23;46.95;97027.95;108613;1280;22533;-88
2023/06/12 07:32:41;;;;;;;2.90;1.90;;;;;;;18.43;46.95;97031.61;108630;1279;22525;-88
2023/06/12 07:35:14;;;;;;;3.70;1.90;;;;;;;18.49;47.12;97033.97;108516;1279;77430;-88
2023/06/12 07:37:49;;;;;;;4.20;2.10;;;;;;;18.95;46.98;97031.25;108620;1273;26713;-88
2023/06/12 07:40:22;;;;;;;2.30;2.00;;;;;;;19.36;46.12;97032.27;108559;1276;22547;-88
2023/06/12 07:42:53;;;;;;;4.70;2.40;;;;;;;19.52;45.93;97034.05;108564;1276;22522;-89
2023/06/12 07:45:25;;;;;;;2.70;1.90;;;;;;;19.67;45.71;97037.16;108526;1260;57092;-88
2023/06/12 07:47:57;;;;;;;3.30;1.90;;;;;;;19.49;45.22;97042.47;108582;1277;22550;-88
2023/06/12 07:50:31;;;;;;;5.50;2.10;;;;;;;19.59;46.13;97040.02;108547;1279;23261;-89
2023/06/12 07:53:04;;;;;;;4.40;2.10;;;;;;;19.80;45.47;97037.67;108570;1279;22559;-89
2023/06/12 07:55:39;;;;;;;2.80;2.00;;;;;;;19.60;44.94;97042.36;108483;1277;121125;-88
2023/06/12 07:58:13;;;;;;;6.30;2.40;;;;;;;19.26;44.71;97037.08;108548;1278;22606;-89
2023/06/12 08:00:46;;;;;;;3.70;2.00;;;;;;;19.29;44.81;97040.29;108392;1276;22536;-88
2023/06/12 08:03:24;;;;;;;3.70;1.90;;;;;;;19.23;45.23;97037.66;108567;1277;22511;-88
2023/06/12 08:05:56;;;;;;;2.20;1.80;;;;;;;19.44;44.98;97040.17;108560;1276;49052;-89
2023/06/12 08:08:27;;;;;;;3.50;2.10;;;;;;;19.31;45.22;97038.20;108562;1273;22608;-89
2023/06/12 08:11:01;;;;;;;3.50;2.00;;;;;;;19.02;44.61;97033.92;108556;1277;22540;-87
2023/06/12 08:13:34;;;;;;;4.00;2.10;;;;;;;18.63;45.11;97036.89;108443;1279;22553;-87
2023/06/12 08:16:08;;;;;;;4.90;2.10;;;;;;;18.74;46.07;97029.21;108436;1276;166152;-86
2023/06/12 08:18:40;;;;;;;3.20;2.20;;;;;;;18.65;45.95;97029.77;108529;1279;22566;-88
2023/06/12 08:21:12;;;;;;;5.50;2.10;;;;;;;18.91;46.23;97029.91;108588;1279;22542;-89
2023/06/12 08:23:43;;;;;;;3.10;2.10;;;;;;;19.08;45.33;97036.52;108520;1279;25413;-87
2023/06/12 08:26:17;;;;;;;6.40;2.80;;;;;;;19.13;45.82;97036.81;108531;1272;63255;-88
2023/06/12 08:28:54;;;;;;;5.80;2.30;;;;;;;19.17;45.88;97042.58;108495;1277;25513;-88
2023/06/12 08:31:26;;;;;;;4.40;1.90;;;;;;;18.84;45.35;97042.19;108595;1272;22547;-88
2023/06/12 08:33:58;;;;;;;4.60;2.30;;;;;;;18.65;45.57;97037.33;108571;1274;24202;-87
2023/06/12 08:36:30;;;;;;;3.30;2.00;;;;;;;18.40;45.47;97033.66;108430;1262;26539;-87
2023/06/12 08:39:01;;;;;;;4.80;2.20;;;;;;;18.30;45.50;97034.05;108389;1280;25249;-86
2023/06/12 08:41:35;;;;;;;4.50;2.70;;;;;;;18.15;45.80;97032.77;108439;1273;25268;-87
2023/06/12 08:44:09;;;;;;;4.00;2.30;;;;;;;18.09;46.26;97030.45;108343;1278;85940;-88
2023/06/12 08:46:43;;;;;;;4.00;2.20;;;;;;;18.13;46.44;97035.06;108577;1278;22540;-87
2023/06/12 08:49:15;;;;;;;4.90;2.20;;;;;;;18.24;46.69;97035.57;108563;1279;22648;-87
2023/06/12 08:51:48;;;;;;;3.00;2.10;;;;;;;18.27;46.62;97030.95;108573;1274;22540;-87
2023/06/12 08:54:19;;;;;;;3.60;2.30;;;;;;;18.13;46.01;97033.02;108483;1279;71073;-87
2023/06/12 08:56:52;;;;;;;2.50;1.70;;;;;;;17.79;45.51;97032.17;108572;1280;22539;-88
2023/06/12 08:59:24;;;;;;;4.70;2.00;;;;;;;17.51;45.11;97031.27;108564;1279;22576;-89
2023/06/12 09:01:58;;;;;;;8.40;2.40;;;;;;;17.38;45.35;97032.33;108589;1279;25243;-89
2023/06/12 09:04:41;;;;;;;5.50;2.20;;;;;;;17.43;46.01;97035.77;108554;1279;46289;-87
2023/06/12 09:07:17;;;;;;;5.40;2.50;;;;;;;17.62;46.83;97032.76;108582;1276;22988;-87
2023/06/12 09:09:51;;;;;;;6.40;1.90;;;;;;;17.93;47.28;97023.83;108538;1275;22534;-88
2023/06/12 09:12:25;;;;;;;4.10;1.90;;;;;;;18.10;46.30;97027.75;108587;1279;24769;-88
2023/06/12 09:15:01;;;;;;;3.90;1.90;;;;;;;18.11;46.08;97028.02;108502;1279;69178;-89
2023/06/12 09:17:38;;;;;;;3.50;1.90;;;;;;;18.03;44.72;97033.02;108579;1279;23280;-90
2023/06/12 09:20:15;;;;;;;2.50;1.80;;;;;;;17.71;43.95;97032.95;108587;1273;22650;-92
2023/06/12 09:23:00;;;;;;;3.30;2.00;;;;;;;17.50;44.01;97039.30;108568;1279;22538;-89
2023/06/12 09:25:41;;;;;;;4.70;2.00;;;;;;;17.30;44.14;97030.73;108335;1267;91651;-89
2023/06/12 09:28:17;;;;;;;2.40;1.70;;;;;;;17.26;44.81;97031.59;108532;1277;22566;-90
2023/06/12 09:31:00;;;;;;;4.30;2.00;;;;;;;17.39;45.37;97024.26;108549;1279;22526;-90
2023/06/12 09:33:40;;;;;;;4.30;1.90;;;;;;;17.63;46.13;97020.16;108374;1267;22533;-89
2023/06/12 09:36:14;;;;;;;5.60;2.30;;;;;;;17.87;46.18;97022.57;108543;1279;31401;-88
2023/06/12 09:38:50;;;;;;;3.40;1.90;;;;;;;17.95;45.61;97023.61;108544;1279;26590;-89
2023/06/12 09:41:31;;;;;;;4.50;1.90;;;;;;;17.77;44.52;97027.24;108529;1279;22526;-89
2023/06/12 09:44:08;;;;;;;4.00;2.10;;;;;;;17.39;43.90;97021.70;108540;1279;22647;-90
2023/06/12 09:46:46;;;;;;;5.80;2.30;;;;;;;17.24;44.70;97017.94;108526;1280;22588;-93
2023/06/12 09:49:25;;;;;;;3.50;1.80;;;;;;;17.18;44.02;97021.11;108580;1272;22562;-90
2023/06/12 09:52:06;;;;;;;3.80;2.10;;;;;;;16.99;44.02;97021.66;108541;1278;22510;-88
2023/06/12 09:54:41;;;;;;;5.60;2.20;;;;;;;17.12;44.97;97013.55;104356;1270;5535607;-88
2023/06/12 09:57:22;;;;;;;3.90;1.90;;;;;;;17.25;45.39;97009.74;108511;1279;22542;-92
2023/06/12 10:00:17;;;;;;;4.00;2.30;;;;;;;17.41;44.76;97012.15;108579;1276;22574;-90
2023/06/12 10:03:10;;;;;;;2.60;1.70;;;;;;;17.34;44.30;97010.86;108534;1279;22555;-91
2023/06/12 10:05:58;;;;;;;2.60;1.80;;;;;;;17.33;44.27;97005.20;108415;1273;43874;-92
2023/06/12 10:08:59;;;;;;;3.50;1.60;;;;;;;17.51;44.59;97005.64;108533;1279;24252;-90
2023/06/12 10:11:32;;;;;;;3.50;1.80;;;;;;;17.66;44.56;96993.95;108515;1279;22597;-89
2023/06/12 10:14:27;;;;;;;4.00;1.90;;;;;;;17.70;44.19;96993.30;108540;1277;22587;-90
2023/06/12 10:17:08;;;;;;;4.90;2.00;;;;;;;17.70;45.57;96998.27;108381;1279;22548;-89
2023/06/12 10:20:00;;;;;;;4.60;2.20;;;;;;;17.86;46.19;96992.27;108549;1279;22539;-90
2023/06/12 10:22:33;;;;;;;2.40;1.90;;;;;;;18.03;46.59;96993.79;108524;1279;22530;-89
2023/06/12 10:25:13;;;;;;;3.40;2.10;;;;;;;18.25;47.16;96993.14;108473;1279;52233;-89
2023/06/12 10:28:01;;;;;;;4.50;1.70;;;;;;;18.50;46.86;96994.00;108545;1272;22589;-91
2023/06/12 10:30:35;;;;;;;4.60;2.00;;;;;;;18.42;46.19;96997.91;108505;1277;22571;-89
2023/06/12 10:33:14;;;;;;;3.10;1.90;;;;;;;18.28;45.95;96997.61;108556;1279;22527;-90
2023/06/12 10:35:55;;;;;;;3.80;2.20;;;;;;;18.17;46.19;96993.63;108454;1279;89784;-89
2023/06/12 10:38:51;;;;;;;4.90;2.20;;;;;;;18.09;46.28;96990.15;108549;1279;22523;-90
2023/06/12 10:41:37;;;;;;;2.00;1.80;;;;;;;18.02;46.47;96987.52;108575;1279;22602;-90
2023/06/12 10:44:39;;;;;;;2.10;1.90;;;;;;;17.92;46.35;96992.61;108564;1279;22653;-90
2023/06/12 10:47:30;;;;;;;3.00;2.10;;;;;;;17.77;46.74;96993.41;108562;1273;22627;-88
2023/06/12 10:50:13;;;;;;;3.30;2.00;;;;;;;17.68;46.64;96987.23;108496;1277;22546;-90
2023/06/12 10:53:04;;;;;;;4.40;2.40;;;;;;;17.56;46.85;96990.73;108550;1279;23083;-89
2023/06/12 10:55:52;;;;;;;4.70;2.10;;;;;;;17.47;47.38;96988.50;106820;1278;2289224;-89
2023/06/12 10:58:28;;;;;;;3.10;1.90;;;;;;;17.50;47.66;96986.70;108538;1273;22561;-89
2023/06/12 11:01:17;;;;;;;4.50;2.10;;;;;;;17.50;47.37;96980.04;108401;1279;22494;-89
2023/06/12 11:03:53;;;;;;;2.00;1.70;;;;;;;17.32;46.76;96978.36;108507;1273;22524;-90
2023/06/12 11:06:28;;;;;;;5.50;2.20;;;;;;;17.23;47.17;96981.31;108416;1279;60253;-91
2023/06/12 11:09:10;;;;;;;4.80;2.30;;;;;;;17.20;47.28;96977.43;108533;1280;22550;-90
2023/06/12 11:11:57;;;;;;;8.80;2.90;;;;;;;17.19;47.39;96973.48;108529;1280;22550;-90
2023/06/12 11:14:49;;;;;;;4.10;2.40;;;;;;;17.00;47.41;96972.03;108523;1279;23011;-91
2023/06/12 11:17:33;;;;;;;3.70;2.20;;;;;;;16.95;47.71;96969.35;108412;1280;22851;-90
2023/06/12 11:20:20;;;;;;;3.90;2.00;;;;;;;16.89;48.04;96965.06;108400;1280;22573;-92
2023/06/12 11:23:17;;;;;;;2.60;1.90;;;;;;;16.83;48.46;96968.44;108410;1280;22544;-90
2023/06/12 11:25:50;;;;;;;3.60;2.10;;;;;;;16.86;48.82;96964.61;108360;1280;88845;-90
2023/06/12 11:28:24;;;;;;;3.30;2.10;;;;;;;16.80;48.35;96965.73;108414;1280;22582;-88
2023/06/12 11:30:58;;;;;;;2.90;2.20;;;;;;;16.63;48.64;96962.30;108423;1280;25421;-89
2023/06/12 11:33:35;;;;;;;2.60;2.00;;;;;;;16.61;49.00;96956.23;108436;1280;22527;-90
2023/06/12 11:36:08;;;;;;;3.10;1.80;;;;;;;16.60;49.20;96956.10;108302;1277;75452;-89
2023/06/12 11:38:45;;;;;;;3.30;2.10;;;;;;;16.69;49.44;96951.23;108505;1273;22537;-89
2023/06/12 11:41:19;;;;;;;4.00;2.20;;;;;;;16.86;49.88;96944.11;108490;1279;22528;-90
2023/06/12 11:43:58;;;;;;;4.70;2.20;;;;;;;17.00;50.07;96945.63;108492;1279;22563;-90
2023/06/12 11:46:39;;;;;;;2.70;2.00;;;;;;;17.05;49.86;96944.65;108428;1279;101950;-90
2023/06/12 11:49:21;;;;;;;3.70;2.20;;;;;;;17.02;49.97;96941.22;108555;1279;22520;-89
2023/06/12 11:52:00;;;;;;;4.20;2.20;;;;;;;17.02;50.20;96938.70;108461;1272;25267;-89
2023/06/12 11:55:10;;;;;;;4.60;2.40;;;;;;;17.04;50.30;96939.36;108534;1279;24270;-89
2023/06/12 11:57:50;;;;;;;4.60;1.90;;;;;;;17.13;50.65;96940.59;108395;1280;25268;-90
2023/06/12 12:00:30;;;;;;;2.90;1.70;;;;;;;17.22;50.28;96940.23;108457;1280;22536;-90
2023/06/12 12:03:08;;;;;;;2.80;1.80;;;;;;;17.21;49.74;96940.01;108429;1280;22570;-91